Time;durP1;ratioP1;P1;durP2;ratioP2;P2;SDS_P1;SDS_P2;PMS_P1;PMS_P2;Temp;Humidity;BMP_temperature;BMP_pressure;BME280_temperature;BME280_humidity;BME280_pressure;Samples;Min_cycle;Max_cycle;Signal;HPM_P1;HPM_P2
2023/03/13 00:00:26;;;;;;;24.52;5.38;;;;;;;8.76;100.00;100217.84;5111896;28;20031;-53
2023/03/13 00:02:52;;;;;;;26.00;5.57;;;;;;;8.74;100.00;100209.19;5111972;28;20377;-52
2023/03/13 00:05:17;;;;;;;25.58;5.00;;;;;;;8.72;100.00;100203.19;5111644;28;20023;-52
2023/03/13 00:07:42;;;;;;;24.83;6.10;;;;;;;8.69;100.00;100199.84;5111112;28;20097;-53
2023/03/13 00:10:08;;;;;;;22.75;5.05;;;;;;;8.67;100.00;100195.59;5111762;28;20024;-52
2023/03/13 00:12:33;;;;;;;23.08;4.97;;;;;;;8.65;100.00;100187.78;5111328;28;20046;-52
2023/03/13 00:14:58;;;;;;;16.52;4.68;;;;;;;8.66;100.00;100189.47;5114028;28;20058;-53
2023/03/13 00:17:24;;;;;;;22.60;4.95;;;;;;;8.64;100.00;100185.25;5115401;27;20065;-53
2023/03/13 00:19:49;;;;;;;24.33;5.93;;;;;;;8.62;100.00;100173.97;5112960;27;20035;-54
2023/03/13 00:22:15;;;;;;;26.63;5.68;;;;;;;8.60;100.00;100165.31;5114790;28;20024;-52
2023/03/13 00:24:40;;;;;;;23.50;5.03;;;;;;;8.56;100.00;100159.41;5103117;27;20032;-55
2023/03/13 00:27:06;;;;;;;21.95;5.25;;;;;;;8.57;100.00;100158.44;5115026;28;20442;-52
2023/03/13 00:29:32;;;;;;;28.63;5.57;;;;;;;8.54;100.00;100150.72;5114575;28;20110;-52
2023/03/13 00:31:58;;;;;;;28.80;5.50;;;;;;;8.55;100.00;100152.44;5109927;27;20020;-52
2023/03/13 00:34:26;;;;;;;25.63;5.90;;;;;;;8.53;100.00;100143.78;5108324;28;20027;-52
2023/03/13 00:36:52;;;;;;;21.98;5.28;;;;;;;8.51;100.00;100135.94;5117233;27;20534;-52
2023/03/13 00:39:17;;;;;;;24.35;5.53;;;;;;;8.52;100.00;100121.72;5116050;27;20027;-57
2023/03/13 00:41:43;;;;;;;23.48;5.72;;;;;;;8.50;100.00;100121.03;5113857;28;20101;-56
2023/03/13 00:44:08;;;;;;;21.48;5.05;;;;;;;8.50;100.00;100113.09;5115123;28;20039;-54
2023/03/13 00:46:34;;;;;;;22.05;5.10;;;;;;;8.51;100.00;100114.78;5114617;28;20158;-55
2023/03/13 00:49:00;;;;;;;26.27;6.32;;;;;;;8.50;100.00;100102.50;5115045;28;20032;-55
2023/03/13 00:51:26;;;;;;;26.67;5.40;;;;;;;8.50;100.00;100097.19;5112797;27;20474;-53
2023/03/13 00:53:52;;;;;;;18.65;5.13;;;;;;;8.50;100.00;100094.56;5114778;27;20034;-53
2023/03/13 00:56:19;;;;;;;28.08;5.47;;;;;;;8.53;100.00;100088.19;5116605;27;20024;-54
2023/03/13 00:58:46;;;;;;;19.77;5.30;;;;;;;8.54;100.00;100089.03;5102541;28;20036;-56
2023/03/13 01:01:38;;;;;;;21.25;6.15;;;;;;;8.54;100.00;100084.56;5115384;27;20104;-53
2023/03/13 01:04:06;;;;;;;26.38;5.88;;;;;;;8.54;100.00;100073.97;5107242;27;20051;-52
2023/03/13 01:06:34;;;;;;;26.33;5.18;;;;;;;8.59;100.00;100073.59;5115987;27;20105;-54
2023/03/13 01:09:00;;;;;;;21.83;5.70;;;;;;;8.64;100.00;100071.44;5114453;27;20046;-54
2023/03/13 01:11:28;;;;;;;24.60;5.63;;;;;;;8.66;100.00;100054.47;5114628;27;20103;-54
2023/03/13 01:13:55;;;;;;;20.20;5.30;;;;;;;8.67;100.00;100056.13;5113432;27;20024;-56
2023/03/13 01:16:21;;;;;;;24.63;5.80;;;;;;;8.68;100.00;100041.09;5112284;28;20024;-53
2023/03/13 01:18:50;;;;;;;17.33;5.28;;;;;;;8.70;100.00;100045.28;5114071;27;20027;-56
2023/03/13 01:21:18;;;;;;;16.73;4.80;;;;;;;8.76;100.00;100043.97;5112979;27;20024;-53
2023/03/13 01:23:43;;;;;;;19.90;5.30;;;;;;;8.78;100.00;100028.78;5109549;28;20064;-54
2023/03/13 01:26:09;;;;;;;18.48;5.65;;;;;;;8.79;100.00;100011.94;5113296;27;20024;-56
2023/03/13 01:28:35;;;;;;;16.45;4.65;;;;;;;8.81;100.00;100014.44;5105607;28;20391;-54
2023/03/13 01:31:13;;;;;;;16.73;4.93;;;;;;;8.84;100.00;100012.41;5113081;27;20039;-53
2023/03/13 01:33:38;;;;;;;17.58;5.15;;;;;;;8.88;100.00;100005.03;5113011;28;20034;-54
2023/03/13 01:36:03;;;;;;;17.67;4.82;;;;;;;8.92;100.00;100005.63;5114177;27;20106;-55
2023/03/13 01:38:29;;;;;;;17.08;4.75;;;;;;;8.94;100.00;100004.50;5115158;27;20023;-54
2023/03/13 01:40:54;;;;;;;15.77;4.38;;;;;;;9.00;100.00;99997.88;5100649;28;20080;-54
2023/03/13 01:43:26;;;;;;;16.17;5.05;;;;;;;9.01;100.00;99997.75;5113527;28;20056;-53
2023/03/13 01:46:06;;;;;;;15.80;5.05;;;;;;;9.05;100.00;99991.22;5112845;28;20416;-53
2023/03/13 01:48:52;;;;;;;14.77;4.20;;;;;;;9.11;100.00;99984.59;5103548;28;20027;-52
2023/03/13 01:51:29;;;;;;;13.88;3.75;;;;;;;9.19;100.00;99987.44;5113234;28;20031;-53
2023/03/13 01:54:03;;;;;;;14.45;4.38;;;;;;;9.19;100.00;99973.31;5113757;27;20024;-52
2023/03/13 01:56:35;;;;;;;16.13;4.72;;;;;;;9.20;100.00;99972.38;5113256;27;20055;-52
2023/03/13 01:59:02;;;;;;;12.02;4.10;;;;;;;9.23;100.00;99956.22;5113266;28;20056;-52
2023/03/13 02:01:28;;;;;;;14.52;4.03;;;;;;;9.29;100.00;99955.66;5109088;27;20028;-52
2023/03/13 02:03:56;;;;;;;14.40;4.25;;;;;;;9.33;100.00;99933.25;5102073;28;20462;-52
2023/03/13 02:06:22;;;;;;;11.65;4.13;;;;;;;9.36;100.00;99935.63;5113915;27;20023;-54
2023/03/13 02:08:55;;;;;;;12.75;4.10;;;;;;;9.41;100.00;99929.94;5113076;27;20123;-55
2023/03/13 02:11:36;;;;;;;13.50;4.18;;;;;;;9.42;100.00;99921.84;5113502;28;20019;-54
2023/03/13 02:14:03;;;;;;;11.07;3.72;;;;;;;9.44;100.00;99916.41;5112786;28;20038;-52
2023/03/13 02:16:29;;;;;;;10.18;3.78;;;;;;;9.49;100.00;99906.25;5113113;28;20028;-55
2023/03/13 02:18:54;;;;;;;16.40;4.13;;;;;;;9.51;100.00;99899.00;5112201;28;20043;-54
2023/03/13 02:21:32;;;;;;;11.00;4.65;;;;;;;9.54;100.00;99884.63;5103254;28;20055;-53
2023/03/13 02:24:08;;;;;;;15.63;4.57;;;;;;;9.55;100.00;99868.59;5111666;27;20110;-53
2023/03/13 02:26:34;;;;;;;10.23;5.20;;;;;;;9.59;100.00;99866.50;5108006;28;20032;-54
2023/03/13 02:28:59;;;;;;;10.05;4.43;;;;;;;9.59;100.00;99862.06;5113014;28;20560;-56
2023/03/13 02:31:26;;;;;;;13.93;4.93;;;;;;;9.64;100.00;99864.28;5112785;27;20027;-54
2023/03/13 02:33:52;;;;;;;10.18;4.90;;;;;;;9.66;100.00;99877.41;5112927;27;20023;-55
2023/03/13 02:36:18;;;;;;;10.68;4.47;;;;;;;9.66;100.00;99865.03;5112536;28;20114;-53
2023/03/13 02:38:57;;;;;;;11.82;5.00;;;;;;;9.68;100.00;99860.41;5112215;27;20031;-55
2023/03/13 02:41:24;;;;;;;10.32;4.57;;;;;;;9.74;100.00;99853.72;5108679;28;20047;-54
2023/03/13 02:43:49;;;;;;;9.75;4.72;;;;;;;9.75;100.00;99850.09;5113487;28;20046;-55
2023/03/13 02:46:17;;;;;;;13.85;5.53;;;;;;;9.76;100.00;99854.44;5110961;27;20020;-55
2023/03/13 02:48:49;;;;;;;9.18;5.50;;;;;;;9.81;100.00;99854.88;5112525;28;20023;-53
2023/03/13 02:51:33;;;;;;;12.80;5.78;;;;;;;9.85;100.00;99848.28;5114276;27;20030;-53
2023/03/13 02:54:03;;;;;;;10.35;5.18;;;;;;;9.87;100.00;99840.19;5105832;27;20031;-53
2023/03/13 02:56:32;;;;;;;11.20;5.38;;;;;;;9.91;100.00;99858.38;5113842;27;20039;-56
2023/03/13 02:58:57;;;;;;;;;;;;;;;9.95;100.00;99859.75;5112955;28;20062;-56
2023/03/13 03:01:22;;;;;;;8.30;5.47;;;;;;;9.99;100.00;99849.69;5113497;27;20349;-56
2023/03/13 03:03:48;;;;;;;10.65;5.22;;;;;;;10.00;100.00;99859.34;5085028;28;20028;-56
2023/03/13 03:06:13;;;;;;;10.02;5.82;;;;;;;10.03;100.00;99858.25;5108344;27;20039;-56
2023/03/13 03:08:40;;;;;;;8.00;5.38;;;;;;;10.05;100.00;99859.75;5105708;28;20016;-57
2023/03/13 03:11:05;;;;;;;9.20;5.55;;;;;;;10.07;100.00;99856.97;5111530;28;20028;-56
2023/03/13 03:13:32;;;;;;;14.05;6.07;;;;;;;10.08;100.00;99858.66;5112991;28;20024;-57
2023/03/13 03:15:57;;;;;;;8.57;6.30;;;;;;;10.12;100.00;99860.03;5112217;28;20537;-53
2023/03/13 03:18:23;;;;;;;12.18;6.13;;;;;;;10.15;100.00;99860.59;5107923;28;20111;-57
2023/03/13 03:20:48;;;;;;;11.27;6.05;;;;;;;10.17;100.00;99858.66;5107095;28;20067;-57
2023/03/13 03:23:13;;;;;;;11.93;5.93;;;;;;;10.19;100.00;99867.31;5111892;28;20080;-56
2023/03/13 03:25:39;;;;;;;10.88;6.40;;;;;;;10.21;100.00;99861.03;5112292;28;20106;-54
2023/03/13 03:28:04;;;;;;;10.50;6.03;;;;;;;10.21;100.00;99840.66;5112779;28;20026;-55
2023/03/13 03:30:29;;;;;;;9.20;5.90;;;;;;;10.26;100.00;99838.41;5107178;28;20032;-56
2023/03/13 03:32:55;;;;;;;8.48;5.65;;;;;;;10.26;100.00;99843.72;5108636;28;20466;-56
2023/03/13 03:35:20;;;;;;;11.23;5.85;;;;;;;10.28;100.00;99840.94;5111479;28;20023;-56
2023/03/13 03:37:45;;;;;;;8.18;6.07;;;;;;;10.30;100.00;99836.31;5103546;28;20118;-56
2023/03/13 03:40:11;;;;;;;8.73;6.35;;;;;;;10.32;100.00;99839.69;5110931;28;20030;-56
2023/03/13 03:42:36;;;;;;;9.18;6.38;;;;;;;10.34;100.00;99837.72;5112137;28;20059;-56
2023/03/13 03:45:02;;;;;;;10.00;6.43;;;;;;;10.35;100.00;99831.44;5112745;28;20129;-55
2023/03/13 03:47:28;;;;;;;9.57;6.38;;;;;;;10.39;100.00;99839.97;5110142;28;20027;-56
2023/03/13 03:49:53;;;;;;;9.27;6.57;;;;;;;10.39;100.00;99843.44;5115195;27;20367;-54
2023/03/13 03:52:19;;;;;;;8.88;6.30;;;;;;;10.42;100.00;99839.69;5115335;27;20047;-54
2023/03/13 03:54:44;;;;;;;9.52;6.63;;;;;;;10.45;100.00;99842.88;5115603;27;20088;-56
2023/03/13 03:57:09;;;;;;;9.70;6.93;;;;;;;10.46;100.00;99836.63;5115727;27;20027;-55
2023/03/13 03:59:34;;;;;;;9.43;6.53;;;;;;;10.49;100.00;99836.34;5112033;28;20467;-56
2023/03/13 04:02:00;;;;;;;10.93;7.40;;;;;;;10.53;100.00;99823.59;5115808;27;20039;-55
2023/03/13 04:04:26;;;;;;;9.75;6.93;;;;;;;10.54;100.00;99834.09;5115851;27;20110;-54
2023/03/13 04:06:51;;;;;;;12.05;7.07;;;;;;;10.58;100.00;99828.50;5115329;27;20046;-55
2023/03/13 04:09:16;;;;;;;9.48;7.40;;;;;;;10.59;100.00;99825.69;5118302;27;20022;-57
2023/03/13 04:11:41;;;;;;;10.95;6.80;;;;;;;10.60;100.00;99826.53;5117764;27;20508;-53
2023/03/13 04:14:07;;;;;;;9.85;7.40;;;;;;;10.63;100.00;99829.72;5115998;27;20102;-53
2023/03/13 04:16:32;;;;;;;8.48;6.68;;;;;;;10.66;100.00;99828.63;5115102;28;20020;-56
2023/03/13 04:18:57;;;;;;;10.07;6.65;;;;;;;10.71;100.00;99818.41;5113859;27;20024;-56
2023/03/13 04:21:22;;;;;;;10.75;6.70;;;;;;;10.74;100.00;99816.28;5107051;27;20473;-55
2023/03/13 04:23:48;;;;;;;10.77;5.75;;;;;;;10.77;100.00;99799.22;5114624;28;20138;-56
2023/03/13 04:26:13;;;;;;;9.52;6.22;;;;;;;10.82;100.00;99788.16;5115079;28;20039;-56
2023/03/13 04:28:38;;;;;;;8.65;5.50;;;;;;;10.87;100.00;99791.22;5115814;27;20069;-53
2023/03/13 04:31:04;;;;;;;9.38;6.07;;;;;;;10.90;100.00;99785.63;5111081;27;20415;-55
2023/03/13 04:33:29;;;;;;;9.30;5.60;;;;;;;10.95;100.00;99779.88;5114547;27;20020;-55
2023/03/13 04:35:54;;;;;;;8.25;5.60;;;;;;;10.98;100.00;99779.59;5112355;28;20049;-57
2023/03/13 04:38:20;;;;;;;8.07;5.18;;;;;;;11.00;100.00;99767.00;5112016;28;20024;-53
2023/03/13 04:40:45;;;;;;;5.80;4.97;;;;;;;11.03;100.00;99769.34;5114272;28;20028;-56
2023/03/13 04:43:11;;;;;;;8.07;5.50;;;;;;;11.04;100.00;99763.91;5117308;27;20012;-57
2023/03/13 04:45:36;;;;;;;6.85;4.68;;;;;;;11.09;100.00;99763.44;5115227;28;20045;-54
2023/03/13 04:48:01;;;;;;;7.88;4.75;;;;;;;11.12;100.00;99757.81;5113991;27;20028;-56
2023/03/13 04:50:27;;;;;;;5.95;4.78;;;;;;;11.12;100.00;99760.47;5107449;27;20077;-57
2023/03/13 04:52:52;;;;;;;11.57;4.88;;;;;;;11.15;100.00;99754.06;5110729;28;20034;-57
2023/03/13 04:55:17;;;;;;;6.93;4.90;;;;;;;11.15;100.00;99762.03;5114701;28;20028;-56
2023/03/13 04:57:42;;;;;;;6.70;4.18;;;;;;;11.16;100.00;99756.56;5114101;28;20366;-55
2023/03/13 05:00:09;;;;;;;6.45;4.90;;;;;;;11.19;100.00;99755.41;5113399;27;20043;-56
2023/03/13 05:02:34;;;;;;;8.10;4.60;;;;;;;11.23;100.00;99743.50;5117285;27;20090;-57
2023/03/13 05:05:00;;;;;;;7.57;4.32;;;;;;;11.24;100.00;99747.81;5118304;27;20135;-55
2023/03/13 05:07:25;;;;;;;8.70;4.32;;;;;;;11.24;100.00;99734.53;5120557;27;20023;-57
2023/03/13 05:09:50;;;;;;;7.97;4.13;;;;;;;11.24;100.00;99748.69;5114901;27;20031;-54
2023/03/13 05:12:15;;;;;;;10.98;4.30;;;;;;;11.30;100.00;99736.59;5118443;27;20046;-57
2023/03/13 05:14:41;;;;;;;9.00;3.95;;;;;;;11.36;100.00;99732.50;5103460;28;20386;-55
2023/03/13 05:17:06;;;;;;;7.45;3.92;;;;;;;11.39;100.00;99754.34;5113290;28;20016;-55
2023/03/13 05:19:31;;;;;;;6.07;3.83;;;;;;;11.39;100.00;99727.75;5113567;28;20018;-57
2023/03/13 05:21:57;;;;;;;7.82;3.80;;;;;;;11.43;100.00;99734.41;5116944;27;20035;-56
2023/03/13 05:24:22;;;;;;;8.23;3.90;;;;;;;11.45;100.00;99736.94;5105264;27;20531;-56
2023/03/13 05:26:47;;;;;;;10.57;3.75;;;;;;;11.45;100.00;99715.66;5116404;27;20024;-56
2023/03/13 05:29:12;;;;;;;8.18;3.72;;;;;;;11.45;100.00;99716.50;5113821;28;20131;-56
2023/03/13 05:31:38;;;;;;;7.07;3.58;;;;;;;11.48;100.00;99726.81;5115971;27;20032;-57
2023/03/13 05:34:03;;;;;;;8.10;3.72;;;;;;;11.50;100.00;99733.81;5114723;27;20478;-55
2023/03/13 05:36:28;;;;;;;7.00;3.92;;;;;;;11.50;100.00;99716.03;5113617;28;20031;-56
2023/03/13 05:38:53;;;;;;;7.05;3.50;;;;;;;11.54;100.00;99725.41;5112765;28;20062;-56
2023/03/13 05:41:19;;;;;;;7.10;3.65;;;;;;;11.57;100.00;99729.56;5113241;27;20071;-56
2023/03/13 05:43:44;;;;;;;7.35;3.55;;;;;;;11.56;100.00;99726.09;5113259;28;20023;-56
2023/03/13 05:46:09;;;;;;;6.88;3.55;;;;;;;11.58;100.00;99723.28;5114206;27;20024;-55
2023/03/13 05:48:35;;;;;;;5.35;3.10;;;;;;;11.58;100.00;99728.59;5112662;28;20061;-54
2023/03/13 05:51:00;;;;;;;10.32;3.70;;;;;;;11.60;100.00;99718.63;5113905;28;20386;-53
2023/03/13 05:53:25;;;;;;;9.00;3.08;;;;;;;11.61;100.00;99720.31;5108402;28;20085;-56
2023/03/13 05:55:50;;;;;;;7.45;3.22;;;;;;;11.60;100.00;99729.28;5108877;27;20028;-56
2023/03/13 05:58:16;;;;;;;8.88;3.65;;;;;;;11.61;100.00;99738.94;5109000;27;20024;-55
2023/03/13 06:00:42;;;;;;;9.43;3.38;;;;;;;11.61;100.00;99731.78;5112327;27;20045;-55
2023/03/13 06:03:08;;;;;;;7.47;3.50;;;;;;;11.65;100.00;99734.97;5113560;27;20054;-55
2023/03/13 06:05:33;;;;;;;7.80;3.33;;;;;;;11.69;100.00;99735.50;5112247;27;20231;-53
2023/03/13 06:07:58;;;;;;;8.20;3.63;;;;;;;11.69;100.00;99727.50;5113063;28;20527;-52
2023/03/13 06:10:24;;;;;;;8.40;3.53;;;;;;;11.70;100.00;99732.69;5112027;27;20072;-53
2023/03/13 06:12:53;;;;;;;4.63;2.83;;;;;;;11.70;100.00;99740.66;5113815;28;20028;-55
2023/03/13 06:15:18;;;;;;;9.75;3.17;;;;;;;11.72;100.00;99724.56;5101926;27;20363;-53
2023/03/13 06:17:43;;;;;;;6.53;2.95;;;;;;;11.70;100.00;99723.88;5112353;28;20035;-54
2023/03/13 06:20:10;;;;;;;6.50;3.42;;;;;;;11.75;100.00;99705.63;5095381;28;20028;-56
2023/03/13 06:22:35;;;;;;;11.32;3.47;;;;;;;11.73;100.00;99716.41;5114452;28;20110;-55
2023/03/13 06:25:01;;;;;;;8.20;3.67;;;;;;;11.72;100.00;99716.56;5114034;28;20162;-54
2023/03/13 06:27:26;;;;;;;7.20;3.08;;;;;;;11.73;100.00;99715.59;5112091;28;20412;-55
2023/03/13 06:29:51;;;;;;;7.15;3.30;;;;;;;11.75;100.00;99718.94;5111294;28;20035;-52
2023/03/13 06:32:16;;;;;;;10.10;3.60;;;;;;;11.74;100.00;99715.44;5112499;28;20036;-54
2023/03/13 06:34:42;;;;;;;9.80;3.40;;;;;;;11.77;100.00;99722.28;5114017;27;20020;-56
2023/03/13 06:37:07;;;;;;;9.70;3.50;;;;;;;11.81;100.00;99708.50;5095870;28;20047;-55
2023/03/13 06:39:32;;;;;;;8.63;3.22;;;;;;;11.82;100.00;99710.19;5113902;28;20103;-55
2023/03/13 06:41:58;;;;;;;8.45;3.45;;;;;;;11.82;100.00;99712.84;5091813;28;20062;-55
2023/03/13 06:44:23;;;;;;;9.70;3.20;;;;;;;11.82;100.00;99715.53;5106572;27;20027;-54
2023/03/13 06:46:49;;;;;;;8.43;2.88;;;;;;;11.85;100.00;99717.03;5111645;28;20034;-55
2023/03/13 06:49:14;;;;;;;7.47;3.00;;;;;;;11.85;100.00;99701.06;5113706;27;20032;-57
2023/03/13 06:51:39;;;;;;;12.27;3.72;;;;;;;11.86;100.00;99710.72;5113252;28;20362;-55
2023/03/13 06:54:05;;;;;;;10.02;3.20;;;;;;;11.84;100.00;99718.84;5110512;28;20040;-54
2023/03/13 06:56:31;;;;;;;9.82;2.95;;;;;;;11.84;100.00;99707.38;5113220;28;20019;-55
2023/03/13 06:58:56;;;;;;;10.32;3.25;;;;;;;11.89;100.00;99696.25;5092233;28;20088;-55
2023/03/13 07:01:22;;;;;;;7.20;3.03;;;;;;;11.89;100.00;99709.56;5113128;28;20023;-55
2023/03/13 07:03:47;;;;;;;7.22;2.80;;;;;;;11.92;100.00;99703.97;5113172;28;20105;-55
2023/03/13 07:06:13;;;;;;;7.30;3.15;;;;;;;11.92;100.00;99704.78;5106646;28;20030;-55
2023/03/13 07:08:38;;;;;;;10.82;3.30;;;;;;;11.94;100.00;99700.19;5101047;28;20019;-56
2023/03/13 07:11:09;;;;;;;11.38;3.97;;;;;;;11.97;100.00;99704.34;5094863;28;20047;-56
2023/03/13 07:13:34;;;;;;;11.18;3.67;;;;;;;11.99;100.00;99697.88;5112904;28;20493;-57
2023/03/13 07:16:03;;;;;;;8.65;3.58;;;;;;;12.01;100.00;99698.56;5112782;28;20027;-57
2023/03/13 07:18:29;;;;;;;11.57;3.78;;;;;;;12.05;100.00;99700.91;5106339;28;20043;-56
2023/03/13 07:20:56;;;;;;;11.27;3.38;;;;;;;12.06;100.00;99697.25;5097523;28;20039;-58
2023/03/13 07:23:23;;;;;;;8.25;3.10;;;;;;;12.05;100.00;99701.75;5107490;28;20036;-59
2023/03/13 07:26:01;;;;;;;10.90;3.30;;;;;;;12.07;100.00;99697.09;5119467;27;20076;-58
2023/03/13 07:28:29;;;;;;;10.38;3.30;;;;;;;12.07;100.00;99697.09;5121111;27;20104;-58
2023/03/13 07:31:02;;;;;;;11.35;3.63;;;;;;;12.09;100.00;99692.47;5117321;28;20454;-58
2023/03/13 07:33:27;;;;;;;10.20;3.13;;;;;;;12.15;100.00;99701.66;5117414;27;20059;-58
2023/03/13 07:35:53;;;;;;;9.05;3.15;;;;;;;12.16;100.00;99692.69;5117169;27;20031;-58
2023/03/13 07:38:19;;;;;;;7.72;3.30;;;;;;;12.20;100.00;99697.50;5114377;27;20039;-59
2023/03/13 07:40:52;;;;;;;7.18;2.88;;;;;;;12.23;100.00;99690.22;5115370;27;20116;-57
2023/03/13 07:43:17;;;;;;;11.55;2.65;;;;;;;12.25;100.00;99701.56;5113881;28;20043;-58
2023/03/13 07:45:50;;;;;;;8.60;3.00;;;;;;;12.25;100.00;99701.56;5120151;27;20480;-58
2023/03/13 07:48:15;;;;;;;8.20;3.45;;;;;;;12.26;100.00;99703.19;5116600;27;20051;-58
2023/03/13 07:50:40;;;;;;;9.70;3.00;;;;;;;12.26;100.00;99711.19;5114871;28;20024;-58
2023/03/13 07:53:05;;;;;;;7.93;2.65;;;;;;;12.28;100.00;99710.06;5114915;27;20366;-58
2023/03/13 07:55:31;;;;;;;11.90;3.38;;;;;;;12.26;100.00;99705.88;5114338;28;20124;-59
2023/03/13 07:57:56;;;;;;;9.02;3.40;;;;;;;12.25;100.00;99698.88;5116233;27;20443;-58
2023/03/13 08:00:22;;;;;;;9.93;3.28;;;;;;;12.25;100.00;99697.06;5113479;28;20114;-58
2023/03/13 08:02:47;;;;;;;8.82;3.00;;;;;;;12.26;100.00;99705.88;5114028;28;20651;-58
2023/03/13 08:05:13;;;;;;;12.13;3.38;;;;;;;12.33;100.00;99689.13;5112418;28;20036;-58
2023/03/13 08:07:38;;;;;;;10.35;3.50;;;;;;;12.36;100.00;99687.97;5110923;28;20036;-58
2023/03/13 08:10:04;;;;;;;8.35;3.08;;;;;;;12.40;100.00;99692.81;5114171;27;20518;-58
2023/03/13 08:12:29;;;;;;;11.82;3.20;;;;;;;12.44;100.00;99677.38;5116575;27;20031;-60
2023/03/13 08:14:54;;;;;;;10.23;3.28;;;;;;;12.49;100.00;99684.88;5109899;27;20089;-58
2023/03/13 08:17:19;;;;;;;10.65;2.97;;;;;;;12.53;100.00;99671.09;5105396;28;20122;-57
2023/03/13 08:19:45;;;;;;;9.00;3.10;;;;;;;12.56;100.00;99670.75;5113193;28;20043;-58
2023/03/13 08:22:10;;;;;;;8.65;3.13;;;;;;;12.61;100.00;99680.09;5115114;27;20035;-57
2023/03/13 08:24:35;;;;;;;8.38;2.85;;;;;;;12.65;100.00;99679.63;5114820;28;20122;-57
2023/03/13 08:27:00;;;;;;;11.02;3.03;;;;;;;12.69;100.00;99665.00;5114292;28;20042;-58
2023/03/13 08:29:26;;;;;;;8.50;3.10;;;;;;;12.71;100.00;99664.84;5102453;28;20040;-58
2023/03/13 08:31:51;;;;;;;9.88;2.97;;;;;;;12.75;100.00;99667.00;5114857;28;20050;-59
2023/03/13 08:34:17;;;;;;;12.07;2.95;;;;;;;12.81;100.00;99664.72;5111394;27;20023;-58
2023/03/13 08:36:43;;;;;;;8.13;3.38;;;;;;;12.84;100.00;99661.72;5116872;27;20062;-57
2023/03/13 08:39:19;;;;;;;8.40;2.90;;;;;;;12.88;100.00;99666.56;5115559;28;20023;-57
2023/03/13 08:41:45;;;;;;;7.35;2.80;;;;;;;12.94;99.67;99689.91;5114373;28;20424;-57
2023/03/13 08:44:12;;;;;;;9.10;2.88;;;;;;;13.03;97.91;99671.28;5097140;28;20111;-58
2023/03/13 08:46:38;;;;;;;7.72;2.38;;;;;;;13.09;97.20;99662.59;5115067;28;20028;-58
2023/03/13 08:49:06;;;;;;;7.32;2.20;;;;;;;13.14;97.49;99671.81;5112542;28;20107;-59
2023/03/13 08:51:31;;;;;;;6.47;2.42;;;;;;;13.19;96.50;99687.31;5116139;27;20031;-59
2023/03/13 08:53:57;;;;;;;7.57;2.47;;;;;;;13.22;96.72;99672.81;5116742;27;20032;-59
2023/03/13 08:56:25;;;;;;;6.80;2.40;;;;;;;13.21;97.54;99644.50;5114054;27;20103;-59
2023/03/13 08:58:52;;;;;;;5.85;2.22;;;;;;;13.25;96.32;99665.31;5114621;28;20030;-59
2023/03/13 09:01:18;;;;;;;8.10;2.22;;;;;;;13.26;97.46;99642.19;5113772;28;20050;-59
2023/03/13 09:03:43;;;;;;;7.63;2.80;;;;;;;13.29;96.61;99661.34;5115236;28;20043;-58
2023/03/13 09:06:10;;;;;;;6.60;2.30;;;;;;;13.31;96.85;99661.19;5113169;27;20085;-58
2023/03/13 09:08:36;;;;;;;9.15;2.38;;;;;;;13.32;97.19;99662.84;5111323;28;20035;-59
2023/03/13 09:11:09;;;;;;;6.65;2.45;;;;;;;13.31;97.31;99662.00;5113704;27;20027;-59
2023/03/13 09:13:38;;;;;;;9.93;2.40;;;;;;;13.32;97.64;99657.53;5110612;28;20454;-60
2023/03/13 09:16:06;;;;;;;4.88;2.40;;;;;;;13.35;98.22;99651.03;5093274;28;20024;-59
2023/03/13 09:18:32;;;;;;;7.10;2.80;;;;;;;13.43;98.92;99643.88;5115128;28;20062;-59
2023/03/13 09:20:58;;;;;;;6.43;2.78;;;;;;;13.57;98.87;99625.53;5108073;27;20076;-60
2023/03/13 09:23:24;;;;;;;10.40;2.55;;;;;;;13.72;97.46;99628.38;5106183;28;20050;-59
2023/03/13 09:25:54;;;;;;;6.15;2.92;;;;;;;13.91;97.09;99629.88;5115645;27;20041;-56
2023/03/13 09:28:21;;;;;;;4.07;2.30;;;;;;;14.07;95.32;99624.47;5113364;28;20041;-59
2023/03/13 09:30:48;;;;;;;7.35;2.80;;;;;;;14.27;94.62;99624.94;5097065;27;20123;-59
2023/03/13 09:33:13;;;;;;;4.88;2.33;;;;;;;14.47;94.58;99611.19;5111835;28;20043;-59
2023/03/13 09:35:39;;;;;;;8.00;2.58;;;;;;;14.65;91.90;99608.28;5108266;28;20488;-59
2023/03/13 09:38:05;;;;;;;7.85;2.60;;;;;;;14.80;89.87;99602.06;5108476;28;20112;-59
2023/03/13 09:40:38;;;;;;;8.30;2.65;;;;;;;14.91;89.01;99591.97;5111040;28;20077;-59
2023/03/13 09:43:04;;;;;;;10.40;2.30;;;;;;;15.07;88.18;99593.69;5112425;28;20051;-59
2023/03/13 09:45:33;;;;;;;9.75;2.80;;;;;;;15.21;86.27;99600.94;5112750;28;20035;-58
2023/03/13 09:48:10;;;;;;;4.22;2.28;;;;;;;15.34;86.71;99595.84;5113796;27;20031;-59
2023/03/13 09:50:42;;;;;;;5.78;2.50;;;;;;;15.36;85.74;99585.78;5111900;28;20032;-59
2023/03/13 09:53:16;;;;;;;4.63;1.90;;;;;;;15.40;84.91;99588.09;5129424;27;20390;-59
2023/03/13 09:55:44;;;;;;;5.18;2.10;;;;;;;15.38;83.93;99590.94;5119121;27;20042;-60
2023/03/13 09:58:27;;;;;;;6.90;2.20;;;;;;;15.40;84.42;99574.72;5124025;27;20037;-58
2023/03/13 10:01:04;;;;;;;4.65;2.08;;;;;;;15.39;84.51;99581.91;5114582;27;20042;-59
2023/03/13 10:03:37;;;;;;;4.15;1.90;;;;;;;15.36;83.29;99584.94;5103605;28;20531;-60
2023/03/13 10:06:23;;;;;;;3.30;1.80;;;;;;;15.34;83.39;99586.97;5124609;27;20126;-60
2023/03/13 10:08:48;;;;;;;4.03;2.00;;;;;;;15.33;82.68;99583.44;5125723;27;20035;-60
2023/03/13 10:11:28;;;;;;;2.72;1.70;;;;;;;15.35;82.50;99576.09;5094126;28;20147;-58
2023/03/13 10:13:57;;;;;;;3.50;1.50;;;;;;;15.34;80.85;99579.78;5113186;27;20358;-60
2023/03/13 10:16:28;;;;;;;5.00;2.00;;;;;;;15.42;80.96;99580.72;5105520;28;20394;-59
2023/03/13 10:18:55;;;;;;;4.28;2.15;;;;;;;15.45;80.34;99569.66;5110952;27;20043;-58
2023/03/13 10:21:30;;;;;;;4.07;2.10;;;;;;;15.48;80.66;99562.09;5109620;28;20032;-59
2023/03/13 10:24:04;;;;;;;5.78;2.03;;;;;;;15.49;80.75;99563.78;5101624;28;20039;-59
2023/03/13 10:26:33;;;;;;;4.32;1.85;;;;;;;15.51;78.70;99571.63;5114846;27;20036;-59
2023/03/13 10:29:23;;;;;;;6.20;2.67;;;;;;;15.51;80.85;99569.75;5111186;28;20027;-60
2023/03/13 10:31:56;;;;;;;4.65;2.13;;;;;;;15.42;78.12;99568.19;5095409;28;20067;-59
2023/03/13 10:34:23;;;;;;;2.53;1.65;;;;;;;15.38;78.08;99548.13;5112865;28;20092;-60
2023/03/13 10:36:53;;;;;;;2.20;1.77;;;;;;;15.41;78.49;99549.63;5112129;28;20445;-60
2023/03/13 10:39:21;;;;;;;3.38;1.70;;;;;;;15.47;79.00;99559.59;5112326;27;20110;-58
2023/03/13 10:41:48;;;;;;;3.38;1.98;;;;;;;15.48;77.67;99551.38;5108434;28;20485;-59
2023/03/13 10:44:15;;;;;;;2.63;1.60;;;;;;;15.52;77.94;99551.84;5110445;28;20088;-59
2023/03/13 10:46:43;;;;;;;5.57;1.50;;;;;;;15.50;78.25;99545.84;5108179;27;20031;-59
2023/03/13 10:49:23;;;;;;;3.97;1.98;;;;;;;15.53;79.95;99545.50;5113005;27;20032;-60
2023/03/13 10:52:02;;;;;;;4.32;1.40;;;;;;;15.50;78.54;99536.00;5122930;27;20039;-58
2023/03/13 10:54:35;;;;;;;4.28;1.60;;;;;;;15.52;80.11;99547.34;5107548;28;20031;-60
2023/03/13 10:57:17;;;;;;;1.77;1.52;;;;;;;15.58;80.42;99535.06;5110518;28;20446;-58
2023/03/13 10:59:45;;;;;;;5.30;1.70;;;;;;;15.58;79.40;99523.56;5096892;28;20052;-59
2023/03/13 11:02:30;;;;;;;3.67;1.55;;;;;;;15.64;80.57;99541.56;5100822;27;20024;-60
2023/03/13 11:04:56;;;;;;;4.43;1.65;;;;;;;15.70;77.37;99539.00;5101661;28;20079;-59
2023/03/13 11:07:33;;;;;;;4.28;1.90;;;;;;;15.63;77.62;99538.03;5101389;28;20447;-59
2023/03/13 11:10:16;;;;;;;3.35;1.40;;;;;;;15.63;78.50;99538.03;5110512;28;20039;-59
2023/03/13 11:12:52;;;;;;;5.35;1.58;;;;;;;15.65;77.29;99540.53;5108195;28;20039;-60
2023/03/13 11:15:24;;;;;;;2.72;1.40;;;;;;;15.63;75.89;99529.19;5104510;28;20019;-59
2023/03/13 11:18:05;;;;;;;3.67;1.35;;;;;;;15.65;76.57;99519.13;5096321;28;20057;-59
2023/03/13 11:20:34;;;;;;;5.63;1.52;;;;;;;15.67;77.40;99528.66;5102394;28;20046;-59
2023/03/13 11:23:13;;;;;;;5.63;1.55;;;;;;;15.73;73.87;99503.78;5098212;28;20455;-59
2023/03/13 11:25:49;;;;;;;4.95;1.48;;;;;;;15.85;71.14;99525.66;5107193;28;20397;-59